createdAt,value
2023-04-22T00:04:51.311Z,35.65
2023-04-22T00:09:58.212Z,40.17
2023-04-22T00:15:06.963Z,39.30
2023-04-22T00:20:15.555Z,29.52
2023-04-22T00:25:21.856Z,28.23
2023-04-22T00:30:30.178Z,27.98
2023-04-22T00:35:37.071Z,31.85
2023-04-22T00:40:43.492Z,29.88
2023-04-22T00:45:51.796Z,26.25
2023-04-22T00:50:57.984Z,25.20
2023-04-22T00:56:04.449Z,22.92
2023-04-22T01:01:13.098Z,18.60
2023-04-22T01:06:21.898Z,22.52
2023-04-22T01:11:28.201Z,26.60
2023-04-22T01:16:39.320Z,21.65
2023-04-22T01:21:46.663Z,20.98
2023-04-22T01:26:54.499Z,21.77
2023-04-22T01:32:01.295Z,19.10
2023-04-22T01:37:11.267Z,22.77
2023-04-22T01:42:20.742Z,16.98
2023-04-22T01:47:27.885Z,19.53
2023-04-22T01:52:34.286Z,20.92
2023-04-22T01:57:42.008Z,20.25
2023-04-22T02:02:48.500Z,20.45
2023-04-22T02:07:55.595Z,16.92
2023-04-22T02:13:03.706Z,18.42
2023-04-22T02:18:10.480Z,15.13
2023-04-22T02:23:16.851Z,18.50
2023-04-22T02:28:24.599Z,15.95
2023-04-22T02:33:30.899Z,18.25
2023-04-22T02:38:37.430Z,17.17
2023-04-22T02:43:47.530Z,16.15
2023-04-22T02:48:54.381Z,17.83
2023-04-22T02:54:01.253Z,19.92
2023-04-22T02:59:09.441Z,16.13
2023-04-22T03:04:16.543Z,14.30
2023-04-22T03:09:26.159Z,17.10
2023-04-22T03:14:33.917Z,17.02
2023-04-22T03:19:40.487Z,17.92
2023-04-22T03:24:47.933Z,15.75
2023-04-22T03:29:56.368Z,20.00
2023-04-22T03:35:03.924Z,13.82
2023-04-22T03:40:13.701Z,14.45
2023-04-22T03:45:22.642Z,15.05
2023-04-22T03:50:51.937Z,13.07
2023-04-22T03:55:58.692Z,23.02
2023-04-22T04:01:07.609Z,12.32
2023-04-22T04:11:21.584Z,14.63
2023-04-22T04:16:31.121Z,12.63
2023-04-22T04:21:44.531Z,15.85
2023-04-22T04:26:52.285Z,13.45
2023-04-22T04:32:05.226Z,16.98
2023-04-22T04:37:12.013Z,13.88
2023-04-22T04:42:33.843Z,9.45
2023-04-22T04:47:46.563Z,15.43
2023-04-22T04:52:59.685Z,8.80
2023-04-22T04:58:12.847Z,11.15
2023-04-22T05:03:21.092Z,14.23
2023-04-22T05:08:28.585Z,11.23
2023-04-22T05:13:41.930Z,12.60
2023-04-22T05:18:54.942Z,18.52
2023-04-22T05:24:01.629Z,14.95
2023-04-22T05:29:09.020Z,8.95
2023-04-22T05:34:17.426Z,7.05
2023-04-22T05:39:24.149Z,8.90
2023-04-22T05:44:31.109Z,9.80
2023-04-22T05:49:39.722Z,8.25
2023-04-22T05:54:54.443Z,6.53
2023-04-22T06:00:02.063Z,7.60
2023-04-22T06:05:13.657Z,7.40
2023-04-22T06:10:20.330Z,8.75
2023-04-22T06:15:28.771Z,6.88
2023-04-22T06:20:38.536Z,7.75
2023-04-22T06:25:44.924Z,6.65
2023-04-22T06:30:51.229Z,7.70
2023-04-22T06:35:59.605Z,9.73
2023-04-22T06:41:09.184Z,11.40
2023-04-22T06:46:19.102Z,10.13
2023-04-22T06:51:33.584Z,8.55
2023-04-22T07:01:47.492Z,7.30
2023-04-22T07:06:56.469Z,8.23
2023-04-22T07:12:03.213Z,6.33
2023-04-22T07:17:10.332Z,6.40
2023-04-22T07:22:18.181Z,6.40
2023-04-22T07:27:24.796Z,6.65
2023-04-22T07:32:33.745Z,5.03
2023-04-22T07:37:41.782Z,9.20
2023-04-22T07:42:48.625Z,8.90
2023-04-22T07:47:55.448Z,7.80
2023-04-22T07:53:03.323Z,7.85
2023-04-22T07:58:09.740Z,7.63
2023-04-22T08:03:16.622Z,6.65
2023-04-22T08:08:25.047Z,7.05
2023-04-22T08:13:31.547Z,5.10
2023-04-22T08:18:38.281Z,6.05
2023-04-22T08:23:46.590Z,5.20
2023-04-22T08:28:52.994Z,5.80
2023-04-22T08:34:00.004Z,6.95
2023-04-22T08:39:08.005Z,8.68
2023-04-22T08:44:15.866Z,6.07
2023-04-22T08:49:23.002Z,4.90
2023-04-22T08:54:30.919Z,4.55
2023-04-22T08:59:39.287Z,4.65
2023-04-22T09:04:48.035Z,4.00
2023-04-22T09:09:57.030Z,4.05
2023-04-22T09:20:12.628Z,3.70
2023-04-22T09:25:22.628Z,4.77
2023-04-22T09:30:31.405Z,4.65
2023-04-22T09:35:40.193Z,5.30
2023-04-22T09:40:49.132Z,3.40
2023-04-22T09:45:55.911Z,5.28
2023-04-22T09:51:02.636Z,3.30
2023-04-22T09:56:10.753Z,7.10
2023-04-22T10:01:17.238Z,4.83
2023-04-22T10:06:24.058Z,4.75
2023-04-22T10:11:32.514Z,5.35
2023-04-22T10:16:41.405Z,6.28
2023-04-22T10:27:00.096Z,3.22
2023-04-22T10:32:25.211Z,4.90
2023-04-22T10:37:33.685Z,3.85
2023-04-22T10:42:44.886Z,3.97
2023-04-22T10:47:51.506Z,5.20
2023-04-22T10:53:00.398Z,8.25
2023-04-22T10:58:22.304Z,4.60
2023-04-22T11:03:31.423Z,3.13
2023-04-22T11:08:38.173Z,3.45
2023-04-22T11:13:47.862Z,6.05
2023-04-22T11:18:55.037Z,3.08
2023-04-22T11:24:06.497Z,4.05
2023-04-22T11:29:14.262Z,3.08
2023-04-22T11:34:21.016Z,3.65
2023-04-22T11:39:44.339Z,2.75
2023-04-22T11:45:04.249Z,2.50
2023-04-22T11:50:14.369Z,2.20
2023-04-22T12:00:34.739Z,5.78
2023-04-22T12:05:43.301Z,5.35
2023-04-22T12:10:56.744Z,2.72
2023-04-22T12:16:08.875Z,7.85
2023-04-22T12:21:17.102Z,3.38
2023-04-22T12:26:27.748Z,2.58
2023-04-22T12:31:36.231Z,2.50
2023-04-22T12:36:42.840Z,3.30
2023-04-22T12:41:51.338Z,2.90
2023-04-22T12:46:59.300Z,3.38
2023-04-22T12:52:05.716Z,2.07
2023-04-22T12:57:12.311Z,2.22
2023-04-22T13:02:20.323Z,2.72
2023-04-22T13:07:26.988Z,1.70
2023-04-22T13:12:33.544Z,4.18
2023-04-22T13:17:41.964Z,3.35
2023-04-22T13:22:48.836Z,5.30
2023-04-22T13:27:55.421Z,4.45
2023-04-22T13:33:03.588Z,2.75
2023-04-22T13:38:10.269Z,1.70
2023-04-22T13:43:16.902Z,2.33
2023-04-22T13:48:24.857Z,3.08
2023-04-22T13:53:33.467Z,3.27
2023-04-22T13:58:42.799Z,2.47
2023-04-22T14:03:51.345Z,3.90
2023-04-22T14:08:58.071Z,2.38
2023-04-22T14:14:04.669Z,3.33
2023-04-22T14:19:12.934Z,4.03
2023-04-22T14:24:20.100Z,2.97
2023-04-22T14:29:26.926Z,3.33
2023-04-22T14:34:34.932Z,2.25
2023-04-22T14:39:41.812Z,4.80
2023-04-22T14:44:48.576Z,6.72
2023-04-22T14:49:56.796Z,3.60
2023-04-22T14:55:12.179Z,3.03
2023-04-22T15:00:27.627Z,2.38
2023-04-22T15:05:37.132Z,2.20
2023-04-22T15:10:43.772Z,3.40
2023-04-22T15:15:50.395Z,1.83
2023-04-22T15:20:58.678Z,2.40
2023-04-22T15:26:05.302Z,2.78
2023-04-22T15:31:11.972Z,2.35
2023-04-22T15:36:22.143Z,3.60
2023-04-22T15:41:29.277Z,2.22
2023-04-22T15:46:35.914Z,38.45
2023-04-22T15:51:43.935Z,27.15
2023-04-22T15:56:50.745Z,4.50
2023-04-22T16:01:57.810Z,4.85
2023-04-22T16:07:06.507Z,8.88
2023-04-22T16:12:13.948Z,5.70
2023-04-22T16:17:21.146Z,7.45
2023-04-22T16:22:29.384Z,4.85
2023-04-22T16:27:35.949Z,4.03
2023-04-22T16:32:42.740Z,6.05
2023-04-22T16:37:51.402Z,1.80
2023-04-22T16:43:03.250Z,10.63
2023-04-22T16:48:09.681Z,12.10
2023-04-22T16:53:17.663Z,4.22
2023-04-22T16:58:24.365Z,2.50
2023-04-22T17:03:31.155Z,4.03
2023-04-22T17:08:39.512Z,5.22
2023-04-22T17:13:46.153Z,3.57
2023-04-22T17:18:52.707Z,5.25
2023-04-22T17:24:02.512Z,50.50
2023-04-22T17:29:08.998Z,64.18
2023-04-22T17:34:15.519Z,21.17
2023-04-22T17:39:23.491Z,7.53
2023-04-22T17:44:30.001Z,22.93
2023-04-22T17:49:36.498Z,9.50
2023-04-22T17:54:45.067Z,3.53
2023-04-22T17:59:51.441Z,22.13
2023-04-22T18:04:57.960Z,40.03
2023-04-22T18:10:06.743Z,36.30
2023-04-22T18:20:20.992Z,46.80
2023-04-22T18:25:30.147Z,52.50
2023-04-22T18:30:36.937Z,50.28
2023-04-22T18:35:44.586Z,45.00
2023-04-22T18:40:53.822Z,160.07
2023-04-22T18:46:00.779Z,105.00
2023-04-22T18:51:08.149Z,56.45
2023-04-22T18:56:16.253Z,56.13
2023-04-22T19:01:22.878Z,42.78
2023-04-22T19:06:30.477Z,39.03
2023-04-22T19:11:39.363Z,32.33
2023-04-22T19:16:47.377Z,16.05
2023-04-22T19:21:54.930Z,12.48
2023-04-22T19:27:07.215Z,11.77
2023-04-22T19:32:14.413Z,20.25
2023-04-22T19:37:24.144Z,31.85
2023-04-22T19:42:33.772Z,34.35
2023-04-22T19:47:41.831Z,29.30
2023-04-22T19:52:52.768Z,62.33
2023-04-22T19:58:01.827Z,38.10
2023-04-22T20:03:10.438Z,36.83
2023-04-22T20:08:20.092Z,35.67
2023-04-22T20:13:30.108Z,40.67
2023-04-22T20:18:38.287Z,45.45
2023-04-22T20:23:46.544Z,47.05
2023-04-22T20:28:55.145Z,46.08
2023-04-22T20:34:03.220Z,47.47
2023-04-22T20:39:14.534Z,40.08
2023-04-22T20:44:23.047Z,32.65
2023-04-22T20:49:30.534Z,31.90
2023-04-22T20:54:37.860Z,38.63
2023-04-22T20:59:46.197Z,44.42
2023-04-22T21:04:54.013Z,39.83
2023-04-22T21:10:01.171Z,51.65
2023-04-22T21:15:12.142Z,48.50
2023-04-22T21:20:19.852Z,38.63
2023-04-22T21:25:30.352Z,39.80
2023-04-22T21:30:39.490Z,47.45
2023-04-22T21:40:52.703Z,45.88
2023-04-22T21:46:01.331Z,46.88
2023-04-22T21:51:08.328Z,95.55
2023-04-22T21:56:17.584Z,63.83
2023-04-22T22:01:25.945Z,89.68
2023-04-22T22:06:33.683Z,80.00
2023-04-22T22:11:40.620Z,75.82
2023-04-22T22:16:50.151Z,57.92
2023-04-22T22:21:57.194Z,47.80
2023-04-22T22:27:05.508Z,65.05
2023-04-22T22:32:13.720Z,62.45
2023-04-22T22:37:20.762Z,59.03
2023-04-22T22:42:27.756Z,68.47
2023-04-22T22:47:36.202Z,64.53
2023-04-22T22:52:43.117Z,73.40
2023-04-22T22:57:49.495Z,66.60
2023-04-22T23:02:58.248Z,72.70
2023-04-22T23:08:05.393Z,75.05
2023-04-22T23:13:12.477Z,64.38
2023-04-22T23:18:21.235Z,42.95
2023-04-22T23:23:29.763Z,35.03
2023-04-22T23:28:37.460Z,47.53
2023-04-22T23:33:46.116Z,66.93
2023-04-22T23:38:52.494Z,91.75
2023-04-22T23:43:59.202Z,79.30
2023-04-22T23:49:07.622Z,68.25
2023-04-22T23:54:14.058Z,96.40
2023-04-22T23:59:21.508Z,107.93
